ADDS METAR Data INFO
IDs: Format: Raw Decoded Include TAF

Data at: 1337 UTC 25 Feb 2018

KPMP 251253Z 13010KT 10SM FEW024 FEW085 24/20 A3018 RMK AO2 SLP220 T02440200
KPMP 251153Z 13005KT 10SM CLR 23/20 A3017 RMK AO2 SLP218 T02330200 10244 20233 53007
KPMP 251053Z AUTO 12007KT 10SM CLR 24/20 A3016 RMK AO2 SLP214 T02390200
KPMP 250953Z AUTO 12009KT 10SM CLR 24/20 A3016 RMK AO2 SLP212 T02390200
KPMP 250853Z AUTO 13008KT 10SM SCT024 SCT038 24/21 A3015 RMK AO2 SLP210 T02390206 55005
KPMP 250753Z AUTO 13009KT 10SM SCT023 SCT080 24/21 A3015 RMK AO2 SLP209 T02390206
KPMP 250653Z AUTO 14008KT 10SM SCT023 SCT029 24/21 A3015 RMK AO2 SLP212 T02390206
KPMP 250553Z AUTO 14009KT 10SM FEW024 24/20 A3016 RMK AO2 SLP215 T02390200 10244 20239 57001
KPMP 250453Z AUTO 13012KT 10SM SCT024 24/21 A3016 RMK AO2 SLP214 T02440206 402780217
KPMP 250353Z AUTO 13013KT 10SM SCT026 24/21 A3017 RMK AO2 SLP216 T02440206
KPMP 250253Z AUTO 13013KT 10SM CLR 24/19 A3017 RMK AO2 SLP216 T02440194 51002
KPMP 250153Z 12009KT 10SM CLR 24/20 A3017 RMK AO2 SLP216 T02440200
KPMP 250053Z 13011KT 10SM SCT025 SCT031 24/20 A3016 RMK AO2 SLP215 T02440200
KPMP 242353Z 13010KT 10SM SCT070 24/20 A3016 RMK AO2 SLP214 T02440200 10272 20244 53005
KPMP 242253Z 13012KT 10SM FEW023 SCT065 25/19 A3016 RMK AO2 SLP213 T02500194
KPMP 242153Z 12012KT 10SM FEW028 SCT070 26/20 A3015 RMK AO2 SLP209 T02560200
KPMP 242053Z 13012KT 10SM SCT025 26/20 A3015 RMK AO2 SLP209 T02610200 56015
KPMP 241953Z 12013KT 10SM SCT026 26/19 A3015 RMK AO2 SLP210 T02610194
KPMP 241853Z 13013G19KT 10SM CLR 27/21 A3016 RMK AO2 SLP214 T02720206
KPMP 241753Z 13016KT 10SM CLR 27/19 A3019 RMK AO2 SLP223 T02720194 10278 20239 58016
KPMP 241653Z 13012KT 10SM CLR 27/19 A3022 RMK AO2 SLP232 T02670194
KPMP 241553Z 10011KT 10SM FEW055 26/20 A3024 RMK AO2 SLP239 T02560200
KPMP 241453Z 10015KT 10SM FEW022 FEW037 SCT050 25/21 A3024 RMK AO2 SLP239 T02500211 51009
KPMP 241353Z 09010G18KT 10SM FEW030 FEW042 25/20 A3024 RMK AO2 SLP239 T02500200
KPMP 241253Z 10014KT 10SM FEW026 24/19 A3022 RMK AO2 SLP235 T02440194
KPMP 241153Z 10009KT 10SM FEW027 24/19 A3021 RMK AO2 SLP230 60008 70009 T02390194 10239 20222 53005
KPMP 241053Z AUTO 10008G18KT 10SM SCT025 SCT040 24/20 A3020 RMK AO2 SLP226 T02390200
KPMP 240953Z AUTO 10011G18KT 10SM FEW025 24/20 A3019 RMK AO2 SLP225 T02390200
KPMP 240853Z AUTO 10013G18KT 10SM FEW025 SCT041 BKN080 24/20 A3019 RMK AO2 SLP225 60008 T02390200 56016
KPMP 240753Z AUTO 10015KT 10SM SCT060 SCT080 24/20 A3020 RMK AO2 RAE09B24E36 SLP228 P0001 T02390200
KPMP 240715Z AUTO 11013KT 10SM SCT023 BKN034 BKN043 23/21 A3021 RMK AO2 RAE09 P0000 T02330211
KPMP 240653Z AUTO 10007KT 6SM -RA BR FEW016 BKN024 OVC045 23/22 A3022 RMK AO2 RAB04E33B52 SLP233 P0007 T02280222
KPMP 240629Z AUTO 07004KT 8SM -RA FEW018 BKN024 OVC050 22/22 A3023 RMK AO2 RAB04 P0005 T02220217
KPMP 240553Z AUTO 08009KT 10SM FEW041 OVC048 22/21 A3024 RMK AO2 RAB08E48 SLP240 P0001 60001 T02220206 10250 20217 58011
KPMP 240453Z AUTO 09010KT 10SM FEW034 OVC060 24/20 A3025 RMK AO2 SLP245 T02390200 402720217
KPMP 240353Z AUTO 14009KT 10SM FEW046 BKN065 OVC075 22/20 A3027 RMK AO2 PK WND 12027/0303 RAB34E43 SLP250 P0000 T02220200
KPMP 240253Z AUTO 11021G30KT 8SM FEW027 OVC050 24/20 A3027 RMK AO2 PK WND 11030/0252 SLP251 60000 T02440200 51002
KPMP 240153Z 10011KT 10SM OVC055 24/20 A3027 RMK AO2 SLP251 T02440200